This is the latest recevied weather packets stored in our database for station/object F8KHU-13. If no packets are shown the sender has not sent any weather packets the latest 10 day(s).
| Time | Temp. | Humidity | Pressure | Rain* | Wind** | Luminosity | Snow |
|---|---|---|---|---|---|---|---|
| 1778144138 | 15.56° C | 30% | 1017.8 hPa | 0 mm | - | 0 W/m² | - |
| 1778144117 | 15.56° C | 30% | 1017.8 hPa | 0 mm | - | 0 W/m² | - |
| 1778144097 | 15.56° C | 30% | 1017.8 hPa | 0 mm | - | 0 W/m² | - |
| 1778143238 | 14.44° C | 30% | 1017.7 hPa | 0 mm | - | 0 W/m² | - |
| 1778143218 | 14.44° C | 30% | 1017.8 hPa | 0 mm | - | 0 W/m² | - |
| 1778143197 | 14.44° C | 30% | 1017.8 hPa | 0 mm | - | 0 W/m² | - |
| 1778142338 | 13.89° C | 30% | 1017.7 hPa | 0 mm | - | 0 W/m² | - |
| 1778142318 | 13.89° C | 30% | 1017.7 hPa | 0 mm | - | 0 W/m² | - |
| 1778142298 | 13.89° C | 30% | 1017.8 hPa | 0 mm | - | 0 W/m² | - |
| 1778141438 | 13.33° C | 31% | 1017.6 hPa | 0 mm | - | 0 W/m² | - |
| 1778141398 | 13.33° C | 31% | 1017.6 hPa | 0 mm | - | 0 W/m² | - |
| 1778140538 | 12.78° C | 31% | 1017.5 hPa | 0 mm | - | 0 W/m² | - |
| 1778140518 | 12.78° C | 31% | 1017.5 hPa | 0 mm | - | 0 W/m² | - |
| 1778140498 | 12.78° C | 31% | 1017.5 hPa | 0 mm | - | 0 W/m² | - |
| 1778139638 | 12.22° C | 31% | 1017.4 hPa | 0 mm | - | 0 W/m² | - |
| 1778139618 | 12.22° C | 31% | 1017.5 hPa | 0 mm | - | 0 W/m² | - |
| 1778139598 | 12.22° C | 31% | 1017.5 hPa | 0 mm | - | 0 W/m² | - |
| 1778138738 | 11.67° C | 31% | 1017.4 hPa | 0 mm | - | 0 W/m² | - |
| 1778138718 | 11.67° C | 31% | 1017.3 hPa | 0 mm | - | 0 W/m² | - |
| 1778138698 | 11.67° C | 31% | 1017.4 hPa | 0 mm | - | 0 W/m² | - |
| 1778137834 | 11.11° C | 32% | 1017.3 hPa | 0 mm | - | 0 W/m² | - |
| 1778137814 | 11.11° C | 32% | 1017.3 hPa | 0 mm | - | 0 W/m² | - |
| 1778137794 | 11.11° C | 32% | 1017.3 hPa | 0 mm | - | 0 W/m² | - |
| 1778136936 | 11.11° C | 33% | 1017.3 hPa | 0 mm | - | 0 W/m² | - |
| 1778136916 | 11.11° C | 33% | 1017.2 hPa | 0 mm | - | 0 W/m² | - |
* Rain latest hour (hover to see other rain measurements)
** Current wind speed in m/s (hover to see current wind gust speed)